Time;durP1;ratioP1;P1;durP2;ratioP2;P2;SDS_P1;SDS_P2;PMS_P1;PMS_P2;Temp;Humidity;BMP_temperature;BMP_pressure;BME280_temperature;BME280_humidity;BME280_pressure;Samples;Min_cycle;Max_cycle;Signal;HPM_P1;HPM_P2
2022/04/18 00:00:37;;;;;;;1.65;0.80;;;;;;;;;;4995612;28;20075;-78
2022/04/18 00:03:04;;;;;;;1.65;0.77;;;;;;;;;;4978831;28;20034;-79
2022/04/18 00:05:30;;;;;;;2.33;0.90;;;;;;;;;;5011771;28;20042;-79
2022/04/18 00:07:56;;;;;;;2.35;0.40;;;;;;;;;;5011324;28;20034;-79
2022/04/18 00:10:21;;;;;;;1.85;0.88;;;;;;;;;;4995126;28;20087;-79
2022/04/18 00:12:47;;;;;;;1.77;1.00;;;;;;;;;;5011200;28;20096;-79
2022/04/18 00:15:12;;;;;;;1.58;0.77;;;;;;;;;;5011670;28;20109;-79
2022/04/18 00:17:38;;;;;;;1.50;0.70;;;;;;;;;;4994872;28;20420;-79
2022/04/18 00:20:04;;;;;;;1.67;0.75;;;;;;;;;;5011402;28;20042;-79
2022/04/18 00:22:29;;;;;;;2.22;0.63;;;;;;;;;;5011799;28;20037;-78
2022/04/18 00:24:55;;;;;;;1.75;0.93;;;;;;;;;;5010727;28;20042;-79
2022/04/18 00:27:20;;;;;;;1.70;0.80;;;;;;;;;;5010152;28;20042;-79
2022/04/18 00:29:47;;;;;;;2.13;0.70;;;;;;;;;;5011338;28;20124;-79
2022/04/18 00:32:14;;;;;;;1.55;0.70;;;;;;;;;;5027971;28;20045;-79
2022/04/18 00:34:39;;;;;;;2.40;0.70;;;;;;;;;;5000004;28;20042;-78
2022/04/18 00:37:04;;;;;;;1.85;0.90;;;;;;;;;;5011116;28;20504;-79
2022/04/18 00:39:30;;;;;;;1.95;0.80;;;;;;;;;;5024022;28;20049;-79
2022/04/18 00:41:55;;;;;;;1.75;0.70;;;;;;;;;;5007435;28;20042;-79
2022/04/18 00:44:21;;;;;;;2.00;0.63;;;;;;;;;;4991730;28;20038;-79
2022/04/18 00:46:46;;;;;;;2.05;0.68;;;;;;;;;;5007913;28;20096;-79
2022/04/18 00:49:12;;;;;;;1.27;0.50;;;;;;;;;;5007481;28;20038;-78
2022/04/18 00:51:37;;;;;;;1.25;0.63;;;;;;;;;;4991163;28;20049;-79
2022/04/18 00:54:02;;;;;;;1.70;0.90;;;;;;;;;;4991102;28;20038;-79
2022/04/18 00:56:28;;;;;;;1.73;0.73;;;;;;;;;;4990950;28;20074;-78
2022/04/18 00:58:54;;;;;;;1.48;0.70;;;;;;;;;;5007383;28;20496;-79
2022/04/18 01:01:20;;;;;;;2.85;0.68;;;;;;;;;;4993882;28;20034;-79
2022/04/18 01:03:45;;;;;;;1.20;0.80;;;;;;;;;;5010760;28;20044;-78
2022/04/18 01:06:11;;;;;;;2.38;0.68;;;;;;;;;;5010642;28;20519;-79
2022/04/18 01:08:36;;;;;;;1.77;0.73;;;;;;;;;;5026766;28;20121;-79
2022/04/18 01:11:05;;;;;;;2.30;0.95;;;;;;;;;;5026634;28;20036;-79
2022/04/18 01:13:30;;;;;;;1.77;0.70;;;;;;;;;;5010710;28;20112;-79
2022/04/18 01:15:56;;;;;;;1.95;0.93;;;;;;;;;;5010393;28;20145;-79
2022/04/18 01:18:22;;;;;;;1.63;0.73;;;;;;;;;;5026944;28;20049;-78
2022/04/18 01:20:47;;;;;;;2.90;1.20;;;;;;;;;;5026805;28;20038;-79
2022/04/18 01:23:13;;;;;;;1.33;0.70;;;;;;;;;;5010260;28;20061;-78
2022/04/18 01:31:06;;;;;;;1.83;0.93;;;;;;;;;;5024464;28;20383;-79
2022/04/18 01:33:32;;;;;;;1.67;0.95;;;;;;;;;;5026566;28;20064;-79
2022/04/18 01:35:57;;;;;;;1.08;0.57;;;;;;;;;;5010497;28;20095;-79
2022/04/18 01:38:23;;;;;;;1.88;0.88;;;;;;;;;;5027373;28;20030;-79
2022/04/18 01:40:48;;;;;;;2.50;0.73;;;;;;;;;;5014544;28;20036;-78
2022/04/18 01:43:14;;;;;;;2.28;1.02;;;;;;;;;;4981707;28;20038;-79
2022/04/18 01:45:39;;;;;;;1.08;0.60;;;;;;;;;;4998076;28;20034;-79
2022/04/18 01:48:05;;;;;;;1.67;0.73;;;;;;;;;;4997706;28;20455;-79
2022/04/18 01:50:30;;;;;;;1.83;0.55;;;;;;;;;;4997915;28;20046;-79
2022/04/18 01:52:56;;;;;;;1.55;0.80;;;;;;;;;;4997391;28;20421;-79
2022/04/18 01:55:21;;;;;;;1.60;0.70;;;;;;;;;;4997552;28;20049;-79
2022/04/18 01:57:47;;;;;;;2.17;0.82;;;;;;;;;;4981988;28;20053;-79
2022/04/18 02:00:12;;;;;;;1.83;0.63;;;;;;;;;;4997958;28;20034;-79
2022/04/18 02:02:38;;;;;;;1.65;0.60;;;;;;;;;;4981028;28;20042;-78
2022/04/18 02:05:06;;;;;;;2.70;0.95;;;;;;;;;;5013677;28;20118;-79
2022/04/18 02:07:32;;;;;;;2.08;0.90;;;;;;;;;;5013881;28;20057;-78
2022/04/18 02:09:57;;;;;;;1.63;0.70;;;;;;;;;;4997245;28;20096;-79
2022/04/18 02:12:23;;;;;;;2.22;0.80;;;;;;;;;;5013673;28;20045;-79
2022/04/18 02:14:48;;;;;;;2.10;0.80;;;;;;;;;;5013729;28;20112;-79
2022/04/18 02:17:13;;;;;;;2.67;1.17;;;;;;;;;;5029972;28;20496;-79
2022/04/18 02:19:39;;;;;;;1.85;0.68;;;;;;;;;;4997475;28;20042;-78
2022/04/18 02:22:05;;;;;;;3.05;1.30;;;;;;;;;;4996890;28;20037;-79
2022/04/18 02:24:30;;;;;;;2.05;0.73;;;;;;;;;;5030418;28;20034;-79
2022/04/18 02:26:56;;;;;;;1.80;0.75;;;;;;;;;;5030001;28;20116;-78
2022/04/18 02:29:21;;;;;;;1.20;0.63;;;;;;;;;;4997096;28;20041;-79
2022/04/18 02:34:30;;;;;;;1.92;0.75;;;;;;;;;;5007735;28;20451;-78
2022/04/18 02:36:56;;;;;;;1.40;0.80;;;;;;;;;;4993310;28;20042;-78
2022/04/18 02:39:21;;;;;;;1.45;0.65;;;;;;;;;;4980518;28;20038;-78
2022/04/18 02:41:47;;;;;;;1.92;0.70;;;;;;;;;;4997084;28;20026;-79
2022/04/18 02:44:12;;;;;;;1.95;1.08;;;;;;;;;;5013301;28;20038;-79
2022/04/18 02:46:37;;;;;;;2.53;1.10;;;;;;;;;;4980487;28;20041;-78
2022/04/18 02:49:03;;;;;;;1.77;0.80;;;;;;;;;;4996654;28;20069;-78
2022/04/18 02:51:28;;;;;;;1.52;0.80;;;;;;;;;;5011714;28;20514;-79
2022/04/18 02:53:54;;;;;;;3.85;1.02;;;;;;;;;;4980330;28;20405;-79
2022/04/18 02:56:20;;;;;;;1.98;0.88;;;;;;;;;;4996436;28;20045;-79
2022/04/18 02:58:46;;;;;;;2.17;0.90;;;;;;;;;;4996904;28;20038;-78
2022/04/18 03:01:11;;;;;;;2.80;1.13;;;;;;;;;;4996754;28;20049;-79
2022/04/18 03:03:36;;;;;;;1.65;0.80;;;;;;;;;;5028675;28;20100;-78
2022/04/18 03:06:02;;;;;;;2.25;1.13;;;;;;;;;;5029279;28;20030;-79
2022/04/18 03:08:27;;;;;;;1.33;0.73;;;;;;;;;;5029327;28;20070;-79
2022/04/18 03:11:09;;;;;;;2.15;0.82;;;;;;;;;;5028841;28;20400;-79
2022/04/18 03:13:44;;;;;;;2.25;1.00;;;;;;;;;;5027183;28;20041;-79
2022/04/18 03:16:09;;;;;;;2.03;0.90;;;;;;;;;;5027620;28;20500;-79
2022/04/18 03:18:34;;;;;;;2.47;1.10;;;;;;;;;;5028738;28;20048;-78
2022/04/18 03:21:00;;;;;;;1.70;1.02;;;;;;;;;;5028882;28;20492;-79
2022/04/18 03:23:25;;;;;;;2.72;1.00;;;;;;;;;;5028918;28;20042;-79
2022/04/18 03:25:51;;;;;;;1.80;0.70;;;;;;;;;;5028788;28;20037;-79
2022/04/18 03:28:16;;;;;;;2.00;1.02;;;;;;;;;;5028892;28;20068;-79
2022/04/18 03:30:43;;;;;;;3.70;1.15;;;;;;;;;;5028290;28;20088;-79
2022/04/18 03:33:08;;;;;;;2.25;1.17;;;;;;;;;;5027858;28;20037;-79
2022/04/18 03:35:33;;;;;;;1.92;0.98;;;;;;;;;;5012438;28;20507;-79
2022/04/18 03:40:43;;;;;;;2.25;0.90;;;;;;;;;;5012078;28;20034;-79
2022/04/18 03:43:08;;;;;;;1.83;0.80;;;;;;;;;;4995761;28;20029;-79
2022/04/18 03:45:34;;;;;;;2.47;0.90;;;;;;;;;;4996170;28;20046;-79
2022/04/18 03:47:59;;;;;;;1.70;0.90;;;;;;;;;;4978934;28;20402;-79
2022/04/18 03:50:25;;;;;;;1.65;0.85;;;;;;;;;;5011863;28;20489;-79
2022/04/18 03:52:50;;;;;;;2.25;1.00;;;;;;;;;;5012068;28;20037;-79
2022/04/18 03:55:16;;;;;;;2.90;1.17;;;;;;;;;;4978923;28;20041;-79
2022/04/18 03:57:41;;;;;;;2.40;1.05;;;;;;;;;;4979183;28;20042;-79
2022/04/18 04:00:07;;;;;;;2.63;0.80;;;;;;;;;;4995445;28;20037;-79
2022/04/18 04:02:33;;;;;;;2.17;1.27;;;;;;;;;;4994744;28;20046;-79
2022/04/18 04:04:58;;;;;;;1.60;0.80;;;;;;;;;;5028303;28;20373;-79
2022/04/18 04:07:24;;;;;;;2.08;1.02;;;;;;;;;;5027776;28;20087;-79
2022/04/18 04:09:49;;;;;;;1.85;1.08;;;;;;;;;;5027580;28;20044;-79
2022/04/18 04:12:21;;;;;;;2.53;1.10;;;;;;;;;;5027842;28;20492;-79
2022/04/18 04:14:50;;;;;;;1.90;0.93;;;;;;;;;;5028066;28;20030;-78
2022/04/18 04:17:15;;;;;;;2.05;1.23;;;;;;;;;;5027269;28;20042;-79
2022/04/18 04:19:41;;;;;;;3.05;1.48;;;;;;;;;;5027762;28;20080;-79
2022/04/18 04:22:06;;;;;;;2.47;1.63;;;;;;;;;;5011489;28;20042;-79
2022/04/18 04:24:32;;;;;;;1.65;1.10;;;;;;;;;;5011121;28;20069;-78
2022/04/18 04:26:57;;;;;;;1.98;0.90;;;;;;;;;;5027612;28;20070;-79
2022/04/18 04:29:22;;;;;;;3.92;1.20;;;;;;;;;;5028004;28;20038;-79
2022/04/18 04:31:48;;;;;;;1.58;0.90;;;;;;;;;;5027021;28;20037;-78
2022/04/18 04:34:13;;;;;;;2.67;1.00;;;;;;;;;;5028079;28;20038;-78
2022/04/18 04:36:39;;;;;;;1.80;0.70;;;;;;;;;;5027788;28;20385;-79
2022/04/18 04:39:04;;;;;;;1.58;0.80;;;;;;;;;;5010840;28;20041;-79
2022/04/18 04:41:30;;;;;;;1.63;0.80;;;;;;;;;;4994972;28;20048;-79
2022/04/18 04:43:55;;;;;;;1.92;1.02;;;;;;;;;;4994692;28;20204;-79
2022/04/18 04:46:21;;;;;;;1.55;0.80;;;;;;;;;;4978340;28;20072;-79
2022/04/18 04:48:46;;;;;;;2.85;0.90;;;;;;;;;;4978391;28;20099;-78
2022/04/18 04:51:11;;;;;;;2.60;1.00;;;;;;;;;;4994908;28;20046;-79
2022/04/18 04:53:37;;;;;;;2.20;0.98;;;;;;;;;;4994961;28;20042;-79
2022/04/18 04:56:03;;;;;;;2.70;1.00;;;;;;;;;;4978081;28;20041;-79
2022/04/18 04:58:32;;;;;;;1.73;0.77;;;;;;;;;;4978380;28;20038;-79
2022/04/18 05:00:58;;;;;;;1.55;0.80;;;;;;;;;;5010676;28;20053;-79
2022/04/18 05:03:25;;;;;;;2.95;1.00;;;;;;;;;;4977479;28;20113;-80
2022/04/18 05:05:50;;;;;;;3.38;1.00;;;;;;;;;;5008458;28;20038;-79
2022/04/18 05:08:16;;;;;;;3.28;1.25;;;;;;;;;;4991970;28;20137;-79
2022/04/18 05:10:41;;;;;;;2.05;0.80;;;;;;;;;;5025786;28;20030;-79
2022/04/18 05:13:07;;;;;;;2.42;0.85;;;;;;;;;;5010224;28;20044;-79
2022/04/18 05:15:33;;;;;;;1.70;0.90;;;;;;;;;;5010240;28;20052;-79
2022/04/18 05:17:59;;;;;;;3.75;1.10;;;;;;;;;;4978022;28;20064;-79
2022/04/18 05:20:24;;;;;;;2.72;1.02;;;;;;;;;;5010788;28;20038;-79
2022/04/18 05:22:50;;;;;;;2.50;1.10;;;;;;;;;;5010481;28;20526;-79
2022/04/18 05:25:15;;;;;;;2.85;0.80;;;;;;;;;;5026135;28;20045;-79
2022/04/18 05:27:40;;;;;;;2.20;0.80;;;;;;;;;;5009776;28;20045;-79
2022/04/18 05:30:07;;;;;;;2.88;1.20;;;;;;;;;;4990763;28;20515;-79
2022/04/18 05:32:32;;;;;;;2.25;0.70;;;;;;;;;;5009824;28;20034;-81
2022/04/18 05:34:57;;;;;;;5.55;1.15;;;;;;;;;;4990647;28;20045;-80
2022/04/18 05:37:23;;;;;;;1.45;0.80;;;;;;;;;;5007158;28;20041;-79
2022/04/18 05:39:48;;;;;;;2.40;1.20;;;;;;;;;;4997443;28;20038;-80
2022/04/18 05:42:14;;;;;;;2.75;0.65;;;;;;;;;;4974645;28;20033;-80
2022/04/18 05:44:39;;;;;;;2.10;1.00;;;;;;;;;;5006610;28;20409;-80
2022/04/18 05:47:05;;;;;;;2.33;0.90;;;;;;;;;;4990595;28;20520;-80
2022/04/18 05:49:30;;;;;;;3.83;1.08;;;;;;;;;;5007208;28;20055;-80
2022/04/18 05:51:56;;;;;;;3.55;1.20;;;;;;;;;;4990782;28;20109;-80
2022/04/18 05:54:21;;;;;;;2.50;1.17;;;;;;;;;;4990786;28;20042;-80
2022/04/18 05:56:47;;;;;;;3.22;1.52;;;;;;;;;;5023539;28;20113;-80
2022/04/18 05:59:13;;;;;;;3.20;1.23;;;;;;;;;;4974574;28;20062;-79
2022/04/18 06:01:38;;;;;;;3.03;0.90;;;;;;;;;;5024811;28;20048;-80
2022/04/18 06:04:04;;;;;;;3.85;1.40;;;;;;;;;;5026239;28;20030;-80
2022/04/18 06:06:29;;;;;;;3.92;1.02;;;;;;;;;;5008824;28;20030;-80
2022/04/18 06:08:54;;;;;;;4.50;1.30;;;;;;;;;;5010074;28;20033;-80
2022/04/18 06:11:20;;;;;;;2.72;1.10;;;;;;;;;;5026549;28;20030;-80
2022/04/18 06:13:46;;;;;;;5.47;1.10;;;;;;;;;;5009973;28;20755;-80
2022/04/18 06:16:11;;;;;;;1.75;0.75;;;;;;;;;;5026755;28;20049;-80
2022/04/18 06:18:36;;;;;;;2.75;1.15;;;;;;;;;;5026474;28;20411;-80
2022/04/18 06:21:03;;;;;;;4.15;1.00;;;;;;;;;;5026419;28;20074;-79
2022/04/18 06:23:29;;;;;;;3.85;1.20;;;;;;;;;;5026546;28;20042;-79
2022/04/18 06:25:54;;;;;;;3.10;1.10;;;;;;;;;;5027002;28;20042;-79
2022/04/18 06:28:20;;;;;;;4.03;1.17;;;;;;;;;;5029728;28;20077;-79
2022/04/18 06:30:45;;;;;;;2.28;0.70;;;;;;;;;;5029743;28;20444;-79
2022/04/18 06:33:11;;;;;;;5.38;1.05;;;;;;;;;;5029402;28;20049;-79
2022/04/18 06:35:37;;;;;;;3.65;0.85;;;;;;;;;;5029842;28;20381;-80
2022/04/18 06:38:02;;;;;;;3.72;1.10;;;;;;;;;;5029694;28;20036;-78
2022/04/18 06:40:27;;;;;;;2.15;0.82;;;;;;;;;;4996633;28;20069;-83
2022/04/18 06:42:53;;;;;;;3.47;1.25;;;;;;;;;;4996764;28;20056;-81
2022/04/18 06:45:18;;;;;;;3.50;1.00;;;;;;;;;;4981141;28;20030;-82
2022/04/18 06:47:44;;;;;;;2.58;0.90;;;;;;;;;;4980514;28;20045;-82
2022/04/18 06:50:12;;;;;;;7.40;1.50;;;;;;;;;;4996699;28;20038;-81
2022/04/18 06:52:41;;;;;;;4.90;1.25;;;;;;;;;;4997141;28;20049;-82
2022/04/18 06:55:08;;;;;;;5.35;1.17;;;;;;;;;;4980181;28;20109;-81
2022/04/18 06:57:34;;;;;;;4.68;1.55;;;;;;;;;;4980438;28;20034;-82
2022/04/18 07:00:00;;;;;;;2.03;0.88;;;;;;;;;;4980720;28;20053;-82
2022/04/18 07:02:25;;;;;;;3.25;1.20;;;;;;;;;;4979675;28;20536;-82
2022/04/18 07:04:51;;;;;;;4.45;1.25;;;;;;;;;;4980300;28;20492;-82
2022/04/18 07:07:16;;;;;;;6.82;1.30;;;;;;;;;;4980119;28;20045;-81
2022/04/18 07:09:42;;;;;;;2.80;1.23;;;;;;;;;;5012658;28;20033;-83
2022/04/18 07:12:19;;;;;;;3.38;1.33;;;;;;;;;;4995821;28;20528;-82
2022/04/18 07:14:46;;;;;;;2.85;0.93;;;;;;;;;;5012054;28;20113;-82
2022/04/18 07:17:11;;;;;;;5.20;1.27;;;;;;;;;;4976697;28;20421;-83
2022/04/18 07:19:36;;;;;;;5.10;2.15;;;;;;;;;;4976584;28;20057;-83
2022/04/18 07:22:02;;;;;;;5.40;1.85;;;;;;;;;;4976754;28;20045;-82
2022/04/18 07:24:27;;;;;;;8.85;2.03;;;;;;;;;;4992875;28;20041;-83
2022/04/18 07:26:53;;;;;;;7.13;1.75;;;;;;;;;;4976021;28;20165;-82
2022/04/18 07:29:19;;;;;;;3.97;1.60;;;;;;;;;;4976116;28;20202;-82
2022/04/18 07:31:44;;;;;;;5.10;1.50;;;;;;;;;;4976381;28;20104;-82
2022/04/18 07:34:10;;;;;;;6.75;1.52;;;;;;;;;;4983119;28;20397;-82
2022/04/18 07:36:35;;;;;;;7.15;1.13;;;;;;;;;;5024752;28;20044;-82
2022/04/18 07:39:01;;;;;;;2.58;1.00;;;;;;;;;;5027399;28;20515;-81
2022/04/18 07:41:27;;;;;;;3.60;1.38;;;;;;;;;;4978203;28;20408;-82
2022/04/18 07:43:53;;;;;;;3.58;1.10;;;;;;;;;;4995868;28;20486;-82
2022/04/18 07:46:19;;;;;;;5.03;0.95;;;;;;;;;;5011585;28;20034;-81
2022/04/18 07:48:46;;;;;;;4.05;1.15;;;;;;;;;;4978299;28;20475;-81
2022/04/18 07:53:55;;;;;;;4.63;1.27;;;;;;;;;;4997711;28;20425;-82
2022/04/18 07:56:21;;;;;;;3.60;1.10;;;;;;;;;;4995478;28;20046;-82
2022/04/18 07:58:47;;;;;;;3.80;1.25;;;;;;;;;;4995619;28;20133;-81
2022/04/18 08:01:12;;;;;;;3.80;1.50;;;;;;;;;;4995164;28;20407;-84
2022/04/18 08:03:38;;;;;;;3.25;1.10;;;;;;;;;;5011318;28;20551;-82
2022/04/18 08:06:03;;;;;;;4.50;1.88;;;;;;;;;;5027500;28;20401;-87
2022/04/18 08:08:29;;;;;;;2.47;1.02;;;;;;;;;;4995085;28;20055;-81
2022/04/18 08:10:54;;;;;;;3.10;1.20;;;;;;;;;;5027752;28;20029;-81
2022/04/18 08:13:20;;;;;;;4.70;1.23;;;;;;;;;;5011474;28;20088;-82
2022/04/18 08:15:45;;;;;;;4.40;1.88;;;;;;;;;;4995362;28;20450;-82
2022/04/18 08:18:11;;;;;;;3.92;1.17;;;;;;;;;;4994992;28;20045;-82
2022/04/18 08:20:37;;;;;;;3.72;0.98;;;;;;;;;;5011640;28;20041;-83
2022/04/18 08:23:02;;;;;;;2.80;1.27;;;;;;;;;;5010608;28;20044;-83
2022/04/18 08:25:28;;;;;;;2.80;1.00;;;;;;;;;;4994898;28;20404;-82
2022/04/18 08:27:53;;;;;;;2.53;0.75;;;;;;;;;;5011378;28;20083;-83
2022/04/18 08:30:18;;;;;;;2.17;0.75;;;;;;;;;;4994895;28;20048;-82
2022/04/18 08:32:44;;;;;;;4.47;1.52;;;;;;;;;;5010817;28;20092;-83
2022/04/18 08:35:09;;;;;;;2.50;1.00;;;;;;;;;;4994426;28;20041;-82
2022/04/18 08:37:36;;;;;;;4.85;0.90;;;;;;;;;;5010843;28;20045;-83
2022/04/18 08:40:05;;;;;;;10.35;4.93;;;;;;;;;;4991461;28;20030;-81
2022/04/18 08:42:34;;;;;;;15.55;7.53;;;;;;;;;;5007699;28;20631;-82
2022/04/18 08:45:01;;;;;;;15.77;9.85;;;;;;;;;;4990834;28;20039;-82
2022/04/18 08:52:54;;;;;;;9.75;5.88;;;;;;;;;;5004918;28;20033;-82
2022/04/18 08:55:19;;;;;;;11.55;6.30;;;;;;;;;;5023648;28;20042;-80
2022/04/18 08:57:45;;;;;;;6.22;4.03;;;;;;;;;;4990643;28;20030;-80
2022/04/18 09:00:12;;;;;;;12.73;3.85;;;;;;;;;;5006213;28;20424;-81
2022/04/18 09:02:38;;;;;;;5.50;2.50;;;;;;;;;;5019359;28;20030;-79
2022/04/18 09:05:03;;;;;;;7.30;2.55;;;;;;;;;;5010774;28;20053;-80
2022/04/18 09:07:29;;;;;;;4.72;2.20;;;;;;;;;;5010437;28;20030;-79
2022/04/18 09:09:58;;;;;;;6.78;1.95;;;;;;;;;;5009870;28;20042;-79
2022/04/18 09:12:26;;;;;;;3.35;1.67;;;;;;;;;;5010272;28;20511;-79
2022/04/18 09:14:51;;;;;;;3.90;1.77;;;;;;;;;;5010412;28;20452;-79
2022/04/18 09:17:28;;;;;;;3.38;1.60;;;;;;;;;;5010506;28;20044;-79
2022/04/18 09:20:07;;;;;;;4.45;2.00;;;;;;;;;;5010109;28;20073;-79
2022/04/18 09:22:46;;;;;;;3.55;1.35;;;;;;;;;;5009415;28;20252;-79
2022/04/18 09:25:18;;;;;;;2.53;1.13;;;;;;;;;;5010561;28;20505;-78
2022/04/18 09:27:57;;;;;;;2.60;1.05;;;;;;;;;;5010990;28;20034;-78
2022/04/18 09:30:23;;;;;;;2.72;1.10;;;;;;;;;;5021367;28;20049;-78
2022/04/18 09:33:06;;;;;;;6.75;1.38;;;;;;;;;;5016610;28;20038;-78
2022/04/18 09:35:31;;;;;;;3.60;1.10;;;;;;;;;;4990731;28;20084;-79
2022/04/18 09:38:06;;;;;;;7.57;1.58;;;;;;;;;;5026108;28;20041;-78
2022/04/18 09:40:32;;;;;;;5.03;0.88;;;;;;;;;;5027194;28;20038;-78
2022/04/18 09:42:57;;;;;;;4.13;1.25;;;;;;;;;;4977980;28;20519;-78
2022/04/18 09:45:23;;;;;;;2.85;0.88;;;;;;;;;;4993989;28;20034;-78
2022/04/18 09:48:01;;;;;;;2.15;0.73;;;;;;;;;;4993444;28;20038;-77
2022/04/18 09:53:17;;;;;;;2.50;0.80;;;;;;;;;;5010367;28;20034;-78
2022/04/18 09:55:47;;;;;;;2.45;0.80;;;;;;;;;;4993782;28;20054;-78
2022/04/18 09:58:12;;;;;;;2.47;1.15;;;;;;;;;;4994015;28;20088;-78
2022/04/18 10:00:38;;;;;;;2.75;0.63;;;;;;;;;;5013285;28;20401;-78
2022/04/18 10:03:03;;;;;;;1.88;0.90;;;;;;;;;;5014084;28;20446;-78
2022/04/18 10:05:28;;;;;;;2.90;1.00;;;;;;;;;;5033485;28;20065;-77
2022/04/18 10:07:55;;;;;;;4.45;1.00;;;;;;;;;;5017110;28;20037;-78
2022/04/18 10:10:20;;;;;;;2.55;0.77;;;;;;;;;;5017357;28;20049;-78
2022/04/18 10:12:46;;;;;;;2.10;0.68;;;;;;;;;;5033464;28;20037;-78
2022/04/18 10:15:11;;;;;;;1.25;0.65;;;;;;;;;;5033630;28;20484;-78
2022/04/18 10:17:38;;;;;;;1.60;0.80;;;;;;;;;;5033546;28;20041;-78
2022/04/18 10:20:22;;;;;;;2.25;0.70;;;;;;;;;;5000623;28;20052;-78
2022/04/18 10:22:49;;;;;;;2.28;0.77;;;;;;;;;;5033516;28;20391;-77
2022/04/18 10:25:39;;;;;;;2.28;0.95;;;;;;;;;;5015439;28;20034;-78
2022/04/18 10:28:21;;;;;;;1.30;0.68;;;;;;;;;;4995068;28;20030;-78
2022/04/18 10:30:48;;;;;;;2.45;0.85;;;;;;;;;;4993952;28;20507;-78
2022/04/18 10:33:14;;;;;;;2.05;0.77;;;;;;;;;;4979924;28;20042;-78
2022/04/18 10:35:50;;;;;;;1.67;0.85;;;;;;;;;;5013676;28;20034;-77
2022/04/18 10:38:16;;;;;;;2.40;0.63;;;;;;;;;;5013538;28;20113;-78
2022/04/18 10:40:41;;;;;;;1.05;0.50;;;;;;;;;;5026059;28;20121;-78
2022/04/18 10:43:09;;;;;;;2.38;0.80;;;;;;;;;;4994005;28;20497;-78
2022/04/18 10:45:35;;;;;;;1.33;0.80;;;;;;;;;;4993794;28;20430;-78
2022/04/18 10:48:04;;;;;;;1.42;0.68;;;;;;;;;;5009440;28;20125;-78
2022/04/18 10:50:49;;;;;;;1.67;1.00;;;;;;;;;;5009557;28;20038;-78
2022/04/18 10:53:19;;;;;;;2.13;0.77;;;;;;;;;;5009789;28;20034;-78
2022/04/18 10:55:50;;;;;;;2.47;0.73;;;;;;;;;;5009562;28;20547;-78
2022/04/18 10:58:26;;;;;;;1.95;0.75;;;;;;;;;;4994613;28;20125;-78
2022/04/18 11:00:55;;;;;;;0.90;0.50;;;;;;;;;;4992000;28;20447;-78
2022/04/18 11:03:39;;;;;;;1.48;0.70;;;;;;;;;;5008616;28;20038;-78
2022/04/18 11:06:32;;;;;;;2.03;0.90;;;;;;;;;;5009763;28;20041;-78
2022/04/18 11:08:58;;;;;;;2.05;0.82;;;;;;;;;;4992954;28;20053;-78
2022/04/18 11:11:24;;;;;;;1.83;0.50;;;;;;;;;;5025312;28;20485;-78
2022/04/18 11:13:49;;;;;;;1.63;0.60;;;;;;;;;;5026426;28;20234;-78
2022/04/18 11:16:24;;;;;;;1.17;0.60;;;;;;;;;;5025811;28;20034;-78
2022/04/18 11:19:14;;;;;;;1.92;0.60;;;;;;;;;;4998251;28;20117;-78
2022/04/18 11:21:55;;;;;;;0.65;0.30;;;;;;;;;;5013999;28;20042;-78
2022/04/18 11:24:34;;;;;;;1.73;0.75;;;;;;;;;;5013796;28;20131;-78
2022/04/18 11:26:59;;;;;;;1.92;0.77;;;;;;;;;;5013770;28;20125;-78
2022/04/18 11:29:25;;;;;;;1.20;0.70;;;;;;;;;;5012364;28;20109;-78
2022/04/18 11:31:50;;;;;;;1.27;0.60;;;;;;;;;;5011888;28;20045;-78
2022/04/18 11:34:15;;;;;;;1.40;0.60;;;;;;;;;;5012248;28;20042;-78
2022/04/18 11:36:41;;;;;;;0.70;0.40;;;;;;;;;;5028745;28;20033;-78
2022/04/18 11:39:07;;;;;;;1.25;0.60;;;;;;;;;;5011863;28;20057;-78
2022/04/18 11:41:32;;;;;;;2.72;0.63;;;;;;;;;;4979794;28;20120;-78
2022/04/18 11:43:58;;;;;;;2.30;0.68;;;;;;;;;;4995836;28;20059;-78
2022/04/18 11:46:28;;;;;;;1.27;0.50;;;;;;;;;;4995624;28;20038;-78
2022/04/18 11:48:53;;;;;;;2.70;0.60;;;;;;;;;;4995604;28;20505;-78
2022/04/18 11:51:39;;;;;;;1.83;0.63;;;;;;;;;;5012192;28;20041;-78
2022/04/18 11:54:04;;;;;;;1.60;0.70;;;;;;;;;;4996095;28;20103;-78
2022/04/18 11:56:30;;;;;;;1.15;0.40;;;;;;;;;;4979612;28;20046;-78
2022/04/18 11:58:55;;;;;;;2.10;0.73;;;;;;;;;;4995646;28;20034;-78
2022/04/18 12:06:52;;;;;;;2.25;0.80;;;;;;;;;;5025551;28;20397;-78
2022/04/18 12:09:23;;;;;;;1.42;0.60;;;;;;;;;;5044457;28;20034;-78
2022/04/18 12:11:49;;;;;;;1.60;0.60;;;;;;;;;;5011927;28;20164;-78
2022/04/18 12:14:14;;;;;;;1.50;0.70;;;;;;;;;;5027525;28;20630;-78
2022/04/18 12:16:40;;;;;;;1.60;0.68;;;;;;;;;;4995076;28;20034;-78
2022/04/18 12:19:06;;;;;;;1.75;0.80;;;;;;;;;;5011627;28;20396;-78
2022/04/18 12:21:31;;;;;;;1.42;0.50;;;;;;;;;;5027875;28;20073;-78
2022/04/18 12:23:58;;;;;;;2.55;0.55;;;;;;;;;;5011074;28;20041;-78
2022/04/18 12:26:25;;;;;;;1.42;0.70;;;;;;;;;;5011582;28;20046;-78
2022/04/18 12:28:51;;;;;;;1.25;0.60;;;;;;;;;;5011574;28;20547;-78
2022/04/18 12:31:17;;;;;;;1.23;0.65;;;;;;;;;;5027536;28;20128;-78
2022/04/18 12:33:49;;;;;;;1.42;0.57;;;;;;;;;;5010928;28;20040;-78
2022/04/18 12:36:25;;;;;;;2.08;0.88;;;;;;;;;;5008085;28;20034;-78
2022/04/18 12:38:50;;;;;;;1.48;0.60;;;;;;;;;;4977510;28;20117;-78
2022/04/18 12:41:15;;;;;;;1.60;0.68;;;;;;;;;;5010974;28;20056;-78
2022/04/18 12:43:41;;;;;;;2.00;1.05;;;;;;;;;;4994501;28;20441;-78
2022/04/18 12:46:10;;;;;;;1.98;0.63;;;;;;;;;;4994748;28;20046;-78
2022/04/18 12:48:36;;;;;;;2.22;0.68;;;;;;;;;;4995135;28;20068;-78
2022/04/18 12:51:03;;;;;;;1.80;0.60;;;;;;;;;;4978382;28;20133;-78
2022/04/18 12:53:48;;;;;;;1.10;0.40;;;;;;;;;;5010933;28;20102;-78
2022/04/18 12:56:21;;;;;;;1.15;0.60;;;;;;;;;;4994638;28;20088;-78
2022/04/18 12:59:00;;;;;;;1.15;0.50;;;;;;;;;;4994602;28;20426;-78
2022/04/18 13:01:30;;;;;;;1.00;0.60;;;;;;;;;;4994648;28;20566;-78
2022/04/18 13:03:55;;;;;;;1.40;0.77;;;;;;;;;;5010617;28;20040;-78
2022/04/18 13:06:24;;;;;;;1.95;0.88;;;;;;;;;;5027317;28;20038;-78
2022/04/18 13:08:50;;;;;;;1.35;0.50;;;;;;;;;;5010328;28;20034;-78
2022/04/18 13:11:18;;;;;;;0.90;0.45;;;;;;;;;;4974593;28;20040;-78
2022/04/18 13:13:44;;;;;;;1.58;0.50;;;;;;;;;;5035764;28;20520;-78
2022/04/18 13:16:23;;;;;;;1.77;0.60;;;;;;;;;;5010554;28;20084;-78
2022/04/18 13:19:02;;;;;;;2.08;0.82;;;;;;;;;;5010825;28;20056;-78
2022/04/18 13:21:28;;;;;;;1.80;0.70;;;;;;;;;;5010765;28;20042;-77
2022/04/18 13:23:57;;;;;;;1.90;0.63;;;;;;;;;;5010933;28;20108;-78
2022/04/18 13:26:23;;;;;;;1.23;0.40;;;;;;;;;;4994855;28;20030;-78
2022/04/18 13:28:49;;;;;;;2.45;0.75;;;;;;;;;;5010463;28;20570;-78
2022/04/18 13:31:14;;;;;;;1.50;0.77;;;;;;;;;;5010616;28;20463;-78
2022/04/18 13:33:40;;;;;;;2.72;0.80;;;;;;;;;;5026815;28;20034;-78
2022/04/18 13:38:49;;;;;;;1.92;0.50;;;;;;;;;;5014501;28;20041;-78
2022/04/18 13:41:14;;;;;;;1.92;0.75;;;;;;;;;;5014230;28;20152;-78
2022/04/18 13:43:40;;;;;;;1.30;0.52;;;;;;;;;;4981496;28;20462;-78
2022/04/18 13:46:05;;;;;;;2.28;0.90;;;;;;;;;;4981965;28;20107;-78
2022/04/18 13:48:31;;;;;;;1.98;0.75;;;;;;;;;;4981889;28;20065;-78
2022/04/18 13:50:56;;;;;;;1.15;0.40;;;;;;;;;;5014189;28;20038;-78
2022/04/18 13:53:22;;;;;;;2.30;0.93;;;;;;;;;;4998026;28;20507;-78
2022/04/18 13:55:47;;;;;;;2.10;0.80;;;;;;;;;;5015151;28;20547;-78
2022/04/18 13:58:12;;;;;;;1.77;0.50;;;;;;;;;;4997640;28;20060;-78
2022/04/18 14:00:43;;;;;;;1.25;0.68;;;;;;;;;;4997892;28;20039;-78
2022/04/18 14:03:09;;;;;;;2.35;0.85;;;;;;;;;;4997515;28;20046;-78
2022/04/18 14:05:39;;;;;;;2.65;1.08;;;;;;;;;;5047508;28;20071;-78
2022/04/18 14:08:04;;;;;;;1.40;0.50;;;;;;;;;;5013320;28;20029;-77
2022/04/18 14:10:30;;;;;;;1.88;0.60;;;;;;;;;;4997326;28;20034;-78
2022/04/18 14:12:55;;;;;;;1.73;0.60;;;;;;;;;;5013938;28;20046;-78
2022/04/18 14:20:49;;;;;;;1.83;0.82;;;;;;;;;;5028012;28;20092;-78
2022/04/18 14:23:14;;;;;;;1.77;0.60;;;;;;;;;;5029978;28;20038;-78
2022/04/18 14:25:40;;;;;;;2.15;0.77;;;;;;;;;;5030175;28;20041;-78
2022/04/18 14:28:06;;;;;;;1.48;0.57;;;;;;;;;;5030069;28;20038;-78
2022/04/18 14:30:31;;;;;;;3.20;0.73;;;;;;;;;;5029809;28;21082;-78
2022/04/18 14:32:57;;;;;;;1.35;0.70;;;;;;;;;;5029571;28;20037;-78
2022/04/18 14:35:23;;;;;;;1.50;0.60;;;;;;;;;;5013354;28;20091;-78
2022/04/18 14:37:48;;;;;;;2.20;0.57;;;;;;;;;;5013514;28;20083;-78
2022/04/18 14:40:14;;;;;;;1.25;0.60;;;;;;;;;;5012756;28;20413;-78
2022/04/18 14:42:39;;;;;;;1.10;0.60;;;;;;;;;;5013746;28;20408;-78
2022/04/18 14:45:06;;;;;;;1.42;0.60;;;;;;;;;;4980855;28;20044;-78
2022/04/18 14:47:31;;;;;;;2.15;0.70;;;;;;;;;;5012313;28;20037;-78
2022/04/18 14:49:58;;;;;;;1.98;0.68;;;;;;;;;;5013302;28;20049;-78
2022/04/18 14:52:23;;;;;;;1.40;0.70;;;;;;;;;;5012940;28;20492;-77
2022/04/18 14:54:51;;;;;;;1.40;0.70;;;;;;;;;;5012937;28;20041;-78
2022/04/18 14:57:16;;;;;;;1.58;0.70;;;;;;;;;;5013225;28;20046;-78
2022/04/18 14:59:42;;;;;;;2.45;0.80;;;;;;;;;;5013458;28;20042;-78
2022/04/18 15:02:08;;;;;;;2.35;0.70;;;;;;;;;;5012634;28;20042;-78
2022/04/18 15:04:33;;;;;;;2.05;0.68;;;;;;;;;;5029707;28;20400;-78
2022/04/18 15:06:59;;;;;;;1.08;0.70;;;;;;;;;;5029133;28;20554;-78
2022/04/18 15:09:24;;;;;;;0.85;0.50;;;;;;;;;;5012445;28;20041;-78
2022/04/18 15:11:50;;;;;;;1.27;0.60;;;;;;;;;;5029171;28;20061;-78
2022/04/18 15:14:15;;;;;;;1.25;0.68;;;;;;;;;;5008190;28;20039;-78
2022/04/18 15:16:42;;;;;;;1.88;0.75;;;;;;;;;;4993014;28;20489;-78